createdAt,value
2022-08-26T00:04:40.865Z,100122.66
2022-08-26T00:09:47.294Z,100118.27
2022-08-26T00:14:50.868Z,100111.80
2022-08-26T00:19:54.484Z,100116.02
2022-08-26T00:24:58.614Z,100119.00
2022-08-26T00:30:06.921Z,100113.40
2022-08-26T00:35:12.099Z,100108.70
2022-08-26T00:40:20.373Z,100104.30
2022-08-26T00:45:24.183Z,100100.05
2022-08-26T00:50:31.250Z,100096.95
2022-08-26T00:55:41.520Z,100097.19
2022-08-26T01:00:45.205Z,100097.02
2022-08-26T01:05:48.961Z,100100.70
2022-08-26T01:10:55.744Z,100103.06
2022-08-26T01:16:03.077Z,100101.52
2022-08-26T01:21:22.487Z,100100.36
2022-08-26T01:26:31.084Z,100103.73
2022-08-26T01:31:42.127Z,100103.13
2022-08-26T01:36:50.718Z,100103.70
2022-08-26T01:41:57.269Z,100104.04
2022-08-26T01:47:07.379Z,100105.48
2022-08-26T01:52:18.867Z,100108.54
2022-08-26T01:57:27.406Z,100111.52
2022-08-26T02:02:30.815Z,100104.37
2022-08-26T02:07:34.742Z,100108.89
2022-08-26T02:12:39.178Z,100103.19
2022-08-26T02:17:47.633Z,100101.85
2022-08-26T02:22:51.021Z,100101.90
2022-08-26T02:27:56.995Z,100101.94
2022-08-26T02:33:04.115Z,100097.06
2022-08-26T02:38:10.262Z,100097.41
2022-08-26T02:43:14.813Z,100095.83
2022-08-26T02:48:21.490Z,100094.14
2022-08-26T02:53:25.548Z,100094.25
2022-08-26T02:58:29.048Z,100094.11
2022-08-26T03:03:33.391Z,100094.89
2022-08-26T03:08:36.795Z,100091.55
2022-08-26T03:13:41.232Z,100086.77
2022-08-26T03:18:51.997Z,100088.75
2022-08-26T03:23:55.534Z,100087.73
2022-08-26T03:29:20.661Z,100087.81
2022-08-26T03:34:24.277Z,100083.16
2022-08-26T03:39:31.543Z,100079.67
2022-08-26T03:44:36.427Z,100077.52
2022-08-26T03:49:43.629Z,100069.24
2022-08-26T03:54:48.680Z,100069.04
2022-08-26T03:59:52.912Z,100069.94
2022-08-26T04:04:57.145Z,100077.27
2022-08-26T04:10:00.559Z,100080.56
2022-08-26T04:15:13.514Z,100077.57
2022-08-26T04:20:18.517Z,100080.72
2022-08-26T04:25:22.883Z,100086.14
2022-08-26T04:30:28.035Z,100091.00
2022-08-26T04:35:32.372Z,100089.34
2022-08-26T04:40:35.885Z,100091.00
2022-08-26T04:45:41.405Z,100094.41
2022-08-26T04:50:44.771Z,100097.58
2022-08-26T04:55:55.121Z,100097.93
2022-08-26T05:00:58.761Z,100106.33
2022-08-26T05:06:05.536Z,100106.44
2022-08-26T05:11:09.365Z,100106.42
2022-08-26T05:16:15.161Z,100105.11
2022-08-26T05:21:24.390Z,100111.70
2022-08-26T05:26:30.283Z,100113.23
2022-08-26T05:31:34.885Z,100116.02
2022-08-26T05:36:39.252Z,100119.33
2022-08-26T05:41:44.767Z,100120.83
2022-08-26T05:46:48.325Z,100128.34
2022-08-26T05:51:54.601Z,100133.27
2022-08-26T05:56:57.805Z,100131.92
2022-08-26T06:02:02.794Z,100131.28
2022-08-26T06:07:13.501Z,100133.38
2022-08-26T06:12:23.220Z,100132.54
2022-08-26T06:17:26.620Z,100134.27
2022-08-26T06:22:48.872Z,100137.49
2022-08-26T06:27:52.180Z,100138.66
2022-08-26T06:32:55.696Z,100134.54
2022-08-26T06:37:59.212Z,100138.15
2022-08-26T06:43:02.522Z,100141.45
2022-08-26T06:48:07.626Z,100141.08
2022-08-26T06:53:13.192Z,100142.80
2022-08-26T06:58:16.655Z,100145.06
2022-08-26T07:03:21.707Z,100148.45
2022-08-26T07:08:25.119Z,100139.98
2022-08-26T07:13:30.524Z,100143.16
2022-08-26T07:18:37.342Z,100142.27
2022-08-26T07:23:42.840Z,100143.75
2022-08-26T07:28:49.140Z,100139.88
2022-08-26T07:33:53.858Z,100138.55
2022-08-26T07:38:57.787Z,100143.64
2022-08-26T07:44:01.404Z,100144.98
2022-08-26T07:49:04.869Z,100142.27
2022-08-26T07:54:08.231Z,100144.27
2022-08-26T07:59:13.762Z,100145.63
2022-08-26T08:04:26.236Z,100147.31
2022-08-26T08:09:30.040Z,100151.02
2022-08-26T08:14:34.990Z,100152.84
2022-08-26T08:19:39.242Z,100151.45
2022-08-26T08:24:43.150Z,100146.08
2022-08-26T08:29:47.790Z,100142.13
2022-08-26T08:34:52.395Z,100134.47
2022-08-26T08:39:55.767Z,100128.81
2022-08-26T08:45:37.380Z,100131.25
2022-08-26T08:50:46.603Z,100131.82
2022-08-26T08:56:28.419Z,100128.50
2022-08-26T09:01:54.077Z,100131.35
2022-08-26T09:07:00.287Z,100126.46
2022-08-26T09:12:07.777Z,100126.60
2022-08-26T09:17:37.776Z,100128.91
2022-08-26T09:22:41.710Z,100130.10
2022-08-26T09:27:53.718Z,100132.51
2022-08-26T09:33:10.823Z,100126.89
2022-08-26T09:38:35.310Z,100124.97
2022-08-26T09:43:38.772Z,100119.05
2022-08-26T09:48:43.525Z,100111.80
2022-08-26T09:53:53.450Z,100108.45
2022-08-26T09:58:58.024Z,100110.30
2022-08-26T10:04:26.794Z,100108.70
2022-08-26T10:09:35.745Z,100109.39
2022-08-26T10:14:48.411Z,100112.20
2022-08-26T10:20:22.835Z,100112.43
2022-08-26T10:25:38.035Z,100106.95
2022-08-26T10:30:47.366Z,100108.44
2022-08-26T10:35:53.962Z,100103.82
2022-08-26T10:41:15.891Z,100101.23
2022-08-26T10:46:27.297Z,100106.71
2022-08-26T10:51:38.825Z,100107.80
2022-08-26T10:57:03.744Z,100102.45
2022-08-26T11:02:24.167Z,100091.92
2022-08-26T11:07:34.328Z,100088.67
2022-08-26T11:12:37.607Z,100084.38
2022-08-26T11:17:47.196Z,100074.77
2022-08-26T11:22:51.781Z,100070.20
2022-08-26T11:27:58.403Z,100069.94
2022-08-26T11:33:01.838Z,100065.27
2022-08-26T11:38:50.274Z,100060.58
2022-08-26T11:43:53.620Z,100056.20
2022-08-26T11:49:06.123Z,100055.65
2022-08-26T11:54:13.044Z,100050.99
2022-08-26T12:04:46.692Z,100037.80
2022-08-26T12:09:57.120Z,100038.06
2022-08-26T12:15:15.441Z,100039.39
2022-08-26T12:20:49.169Z,100032.00
2022-08-26T12:26:03.234Z,100024.58
2022-08-26T12:31:19.548Z,100014.05
2022-08-26T12:36:32.383Z,100008.33
2022-08-26T12:41:47.369Z,100002.71
2022-08-26T12:46:51.102Z,100000.82
2022-08-26T12:51:54.382Z,99998.73
2022-08-26T12:56:57.697Z,99997.42
2022-08-26T13:02:01.106Z,99996.42
2022-08-26T13:07:20.821Z,99985.08
2022-08-26T13:12:37.416Z,99977.72
2022-08-26T13:17:42.289Z,99969.16
2022-08-26T13:22:45.805Z,99968.16
2022-08-26T13:27:57.511Z,99966.68
2022-08-26T13:33:02.222Z,99968.80
2022-08-26T13:38:32.865Z,99961.27
2022-08-26T13:43:37.389Z,99960.60
2022-08-26T13:48:41.131Z,99953.64
2022-08-26T13:53:48.886Z,99951.95
2022-08-26T13:58:52.298Z,99951.17
2022-08-26T14:03:57.408Z,99945.29
2022-08-26T14:09:00.989Z,99941.06
2022-08-26T14:14:04.744Z,99932.16
2022-08-26T14:19:10.967Z,99922.65
2022-08-26T14:24:14.595Z,99915.14
2022-08-26T14:29:18.102Z,99912.61
2022-08-26T14:34:25.201Z,99906.61
2022-08-26T14:39:28.512Z,99909.27
2022-08-26T14:44:33.872Z,99916.96
2022-08-26T14:49:37.386Z,99917.15
2022-08-26T14:54:40.901Z,99916.48
2022-08-26T14:59:49.749Z,99920.01
2022-08-26T15:04:53.674Z,99912.65
2022-08-26T15:09:57.287Z,99907.80
2022-08-26T15:15:00.704Z,99917.47
2022-08-26T15:20:07.824Z,99915.29
2022-08-26T15:25:11.316Z,99912.30
2022-08-26T15:30:16.549Z,99903.40
2022-08-26T15:35:19.888Z,99899.38
2022-08-26T15:40:26.845Z,99889.39
2022-08-26T15:45:33.018Z,99879.94
2022-08-26T15:50:36.363Z,99867.81
2022-08-26T15:55:39.709Z,99854.05
2022-08-26T16:00:43.042Z,99843.40
2022-08-26T16:05:47.710Z,99835.64
2022-08-26T16:10:51.682Z,99834.83
2022-08-26T16:15:55.019Z,99828.71
2022-08-26T16:21:12.520Z,99821.84
2022-08-26T16:26:20.885Z,99820.92
2022-08-26T16:31:24.519Z,99824.00
2022-08-26T16:36:28.000Z,99816.22
2022-08-26T16:41:31.995Z,99815.95
2022-08-26T16:46:36.288Z,99809.27
2022-08-26T16:51:39.694Z,99806.40
2022-08-26T16:56:42.927Z,99805.57
2022-08-26T17:01:46.317Z,99814.17
2022-08-26T17:06:49.948Z,99815.48
2022-08-26T17:11:54.683Z,99815.08
2022-08-26T17:16:57.997Z,99815.63
2022-08-26T17:22:01.225Z,99815.52
2022-08-26T17:27:09.203Z,99808.40
2022-08-26T17:32:12.663Z,99807.76
2022-08-26T17:37:17.055Z,99811.77
2022-08-26T17:42:20.404Z,99810.80
2022-08-26T17:47:24.035Z,99811.54
2022-08-26T17:52:28.282Z,99817.70
2022-08-26T17:57:31.648Z,99821.46
2022-08-26T18:02:43.901Z,99825.93
2022-08-26T18:07:48.667Z,99824.43
2022-08-26T18:12:52.355Z,99832.43
2022-08-26T18:17:55.645Z,99836.38
2022-08-26T18:22:59.030Z,99840.46
2022-08-26T18:28:02.407Z,99843.05
2022-08-26T18:33:05.782Z,99839.29
2022-08-26T18:38:10.848Z,99844.86
2022-08-26T18:43:15.061Z,99852.27
2022-08-26T18:48:18.271Z,99857.95
2022-08-26T18:53:21.667Z,99861.39
2022-08-26T18:58:25.754Z,99859.98
2022-08-26T19:03:29.050Z,99861.17
2022-08-26T19:08:32.255Z,99864.86
2022-08-26T19:13:36.623Z,99871.55
2022-08-26T19:18:40.034Z,99865.18
2022-08-26T19:23:43.309Z,99866.23
2022-08-26T19:28:47.390Z,99871.99
2022-08-26T19:33:53.383Z,99880.05
2022-08-26T19:38:57.275Z,99880.36
2022-08-26T19:44:02.843Z,99880.52
2022-08-26T19:49:07.584Z,99880.80
2022-08-26T19:54:11.097Z,99887.13
2022-08-26T19:59:14.875Z,99887.67
2022-08-26T20:04:18.129Z,99891.80
2022-08-26T20:09:21.440Z,99889.91
2022-08-26T20:14:25.978Z,99888.52
2022-08-26T20:19:48.237Z,99885.91
2022-08-26T20:24:52.455Z,99886.58
2022-08-26T20:29:57.746Z,99887.41
2022-08-26T20:35:01.940Z,99893.45
2022-08-26T20:40:08.592Z,99892.35
2022-08-26T20:45:12.926Z,99886.16
2022-08-26T20:50:16.709Z,99884.08
2022-08-26T20:55:20.838Z,99879.45
2022-08-26T21:00:26.489Z,99879.02
2022-08-26T21:05:30.633Z,99872.32
2022-08-26T21:10:34.048Z,99876.96
2022-08-26T21:15:37.460Z,99875.25
2022-08-26T21:20:40.770Z,99870.34
2022-08-26T21:25:45.239Z,99861.42
2022-08-26T21:30:48.856Z,99859.27
2022-08-26T21:35:55.613Z,99855.34
2022-08-26T21:41:09.862Z,99852.90
2022-08-26T21:46:17.081Z,99858.24
2022-08-26T21:51:23.502Z,99862.05
2022-08-26T21:56:29.836Z,99857.43
2022-08-26T22:01:35.122Z,99856.48
2022-08-26T22:06:47.940Z,99857.10
2022-08-26T22:11:52.062Z,99850.97
2022-08-26T22:16:57.272Z,99849.14
2022-08-26T22:22:01.320Z,99851.23
2022-08-26T22:27:05.150Z,99850.70
2022-08-26T22:32:08.789Z,99852.41
2022-08-26T22:37:12.398Z,99852.36
2022-08-26T22:42:15.835Z,99856.12
2022-08-26T22:47:20.014Z,99850.81
2022-08-26T22:52:23.318Z,99850.73
2022-08-26T22:57:26.767Z,99847.73
2022-08-26T23:02:30.109Z,99840.48
2022-08-26T23:07:34.295Z,99836.23
2022-08-26T23:12:38.224Z,99828.38
2022-08-26T23:17:41.955Z,99825.35
2022-08-26T23:22:45.418Z,99824.41
2022-08-26T23:27:49.271Z,99820.06
2022-08-26T23:32:52.594Z,99816.61
2022-08-26T23:37:56.100Z,99813.55
2022-08-26T23:43:05.213Z,99809.08
2022-08-26T23:48:08.722Z,99807.56
2022-08-26T23:53:19.645Z,99800.92
2022-08-26T23:58:23.081Z,99795.85
